createdAt,value
2022-10-26T00:00:29.942Z,100.00
2022-10-26T00:02:56.259Z,100.00
2022-10-26T00:05:22.890Z,100.00
2022-10-26T00:07:49.191Z,100.00
2022-10-26T00:10:15.108Z,100.00
2022-10-26T00:12:41.376Z,100.00
2022-10-26T00:15:07.867Z,100.00
2022-10-26T00:17:33.840Z,100.00
2022-10-26T00:19:59.980Z,100.00
2022-10-26T00:22:26.585Z,100.00
2022-10-26T00:24:52.393Z,100.00
2022-10-26T00:27:18.236Z,100.00
2022-10-26T00:29:44.066Z,100.00
2022-10-26T00:32:09.875Z,100.00
2022-10-26T00:34:35.611Z,100.00
2022-10-26T00:37:01.379Z,100.00
2022-10-26T00:39:27.156Z,100.00
2022-10-26T00:41:52.915Z,100.00
2022-10-26T00:44:46.673Z,100.00
2022-10-26T00:47:22.925Z,100.00
2022-10-26T00:49:51.899Z,100.00
2022-10-26T00:52:19.673Z,100.00
2022-10-26T00:54:45.615Z,100.00
2022-10-26T00:57:14.385Z,100.00
2022-10-26T00:59:41.521Z,100.00
2022-10-26T01:02:07.604Z,100.00
2022-10-26T01:04:33.790Z,100.00
2022-10-26T01:07:02.550Z,100.00
2022-10-26T01:09:29.060Z,100.00
2022-10-26T01:11:54.805Z,100.00
2022-10-26T01:14:21.750Z,100.00
2022-10-26T01:17:26.781Z,100.00
2022-10-26T01:20:19.475Z,100.00
2022-10-26T01:22:52.386Z,100.00
2022-10-26T01:25:55.356Z,100.00
2022-10-26T01:28:45.604Z,100.00
2022-10-26T01:31:17.568Z,100.00
2022-10-26T01:34:00.868Z,100.00
2022-10-26T01:36:49.574Z,100.00
2022-10-26T01:39:28.868Z,100.00
2022-10-26T01:41:59.828Z,100.00
2022-10-26T01:44:38.824Z,100.00
2022-10-26T01:47:06.629Z,100.00
2022-10-26T01:49:39.720Z,100.00
2022-10-26T01:52:05.628Z,100.00
2022-10-26T01:57:10.331Z,100.00
2022-10-26T01:59:36.070Z,100.00
2022-10-26T02:02:13.751Z,100.00
2022-10-26T02:05:05.523Z,100.00
2022-10-26T02:08:11.524Z,100.00
2022-10-26T02:10:49.145Z,100.00
2022-10-26T02:13:23.638Z,100.00
2022-10-26T02:16:01.735Z,100.00
2022-10-26T02:18:49.093Z,100.00
2022-10-26T02:21:25.165Z,100.00
2022-10-26T02:23:54.803Z,100.00
2022-10-26T02:26:24.629Z,100.00
2022-10-26T02:28:55.369Z,100.00
2022-10-26T02:31:22.829Z,100.00
2022-10-26T02:33:50.351Z,100.00
2022-10-26T02:36:22.814Z,100.00
2022-10-26T02:38:50.821Z,100.00
2022-10-26T02:41:19.063Z,100.00
2022-10-26T02:43:51.660Z,100.00
2022-10-26T02:46:19.984Z,100.00
2022-10-26T02:48:46.095Z,100.00
2022-10-26T02:51:27.864Z,100.00
2022-10-26T02:54:22.041Z,100.00
2022-10-26T02:56:59.343Z,100.00
2022-10-26T02:59:29.984Z,100.00
2022-10-26T03:01:56.799Z,100.00
2022-10-26T03:04:29.318Z,100.00
2022-10-26T03:06:55.153Z,100.00
2022-10-26T03:09:23.527Z,100.00
2022-10-26T03:11:51.344Z,100.00
2022-10-26T03:14:17.115Z,100.00
2022-10-26T03:16:42.961Z,100.00
2022-10-26T03:19:08.883Z,100.00
2022-10-26T03:21:34.671Z,100.00
2022-10-26T03:24:00.402Z,100.00
2022-10-26T03:26:26.162Z,100.00
2022-10-26T03:28:51.919Z,100.00
2022-10-26T03:31:17.694Z,100.00
2022-10-26T03:33:43.565Z,100.00
2022-10-26T03:36:09.926Z,100.00
2022-10-26T03:38:35.679Z,100.00
2022-10-26T03:41:01.628Z,100.00
2022-10-26T03:43:27.504Z,100.00
2022-10-26T03:45:53.370Z,100.00
2022-10-26T03:48:19.287Z,100.00
2022-10-26T03:50:45.100Z,100.00
2022-10-26T03:53:10.913Z,100.00
2022-10-26T03:55:36.785Z,100.00
2022-10-26T03:58:03.928Z,100.00
2022-10-26T04:00:29.659Z,100.00
2022-10-26T04:02:58.278Z,100.00
2022-10-26T04:05:25.968Z,100.00
2022-10-26T04:07:57.010Z,100.00
2022-10-26T04:10:24.150Z,100.00
2022-10-26T04:12:50.252Z,100.00
2022-10-26T04:15:16.745Z,100.00
2022-10-26T04:17:42.574Z,100.00
2022-10-26T04:20:09.284Z,100.00
2022-10-26T04:22:35.810Z,100.00
2022-10-26T04:25:05.944Z,100.00
2022-10-26T04:27:32.076Z,100.00
2022-10-26T04:29:58.271Z,100.00
2022-10-26T04:32:24.135Z,100.00
2022-10-26T04:34:49.911Z,100.00
2022-10-26T04:37:15.714Z,100.00
2022-10-26T04:39:41.465Z,100.00
2022-10-26T04:42:07.245Z,100.00
2022-10-26T04:44:33.104Z,100.00
2022-10-26T04:46:58.849Z,100.00
2022-10-26T04:49:24.614Z,100.00
2022-10-26T04:51:50.456Z,100.00
2022-10-26T04:54:16.290Z,100.00
2022-10-26T04:56:42.124Z,100.00
2022-10-26T04:59:07.935Z,100.00
2022-10-26T05:01:33.770Z,100.00
2022-10-26T05:03:59.731Z,100.00
2022-10-26T05:06:25.565Z,100.00
2022-10-26T05:08:51.401Z,100.00
2022-10-26T05:11:17.157Z,100.00
2022-10-26T05:13:43.019Z,100.00
2022-10-26T05:16:08.867Z,100.00
2022-10-26T05:18:34.733Z,100.00
2022-10-26T05:21:00.526Z,100.00
2022-10-26T05:23:26.345Z,100.00
2022-10-26T05:25:52.131Z,100.00
2022-10-26T05:28:18.157Z,100.00
2022-10-26T05:30:45.449Z,100.00
2022-10-26T05:33:12.643Z,100.00
2022-10-26T05:35:38.627Z,100.00
2022-10-26T05:38:13.098Z,100.00
2022-10-26T05:40:46.691Z,100.00
2022-10-26T05:43:12.441Z,100.00
2022-10-26T05:45:39.097Z,100.00
2022-10-26T05:48:05.206Z,100.00
2022-10-26T05:50:31.038Z,100.00
2022-10-26T05:52:56.865Z,100.00
2022-10-26T05:55:23.147Z,100.00
2022-10-26T05:57:49.507Z,100.00
2022-10-26T06:00:19.017Z,100.00
2022-10-26T06:03:00.056Z,100.00
2022-10-26T06:05:27.961Z,100.00
2022-10-26T06:07:53.992Z,100.00
2022-10-26T06:10:20.436Z,100.00
2022-10-26T06:12:46.545Z,100.00
2022-10-26T06:15:18.125Z,100.00
2022-10-26T06:18:04.619Z,100.00
2022-10-26T06:20:54.702Z,100.00
2022-10-26T06:23:39.327Z,100.00
2022-10-26T06:26:16.997Z,100.00
2022-10-26T06:28:53.944Z,100.00
2022-10-26T06:31:19.799Z,100.00
2022-10-26T06:33:45.688Z,100.00
2022-10-26T06:36:22.742Z,100.00
2022-10-26T06:38:53.468Z,100.00
2022-10-26T06:41:21.478Z,100.00
2022-10-26T06:43:47.784Z,100.00
2022-10-26T06:46:31.083Z,100.00
2022-10-26T06:49:15.683Z,100.00
2022-10-26T06:51:54.755Z,100.00
2022-10-26T06:54:28.501Z,100.00
2022-10-26T06:56:55.194Z,99.65
2022-10-26T06:59:52.599Z,98.62
2022-10-26T07:02:19.376Z,98.58
2022-10-26T07:04:45.836Z,97.13
2022-10-26T07:07:14.986Z,96.61
2022-10-26T07:09:40.869Z,96.20
2022-10-26T07:12:06.719Z,96.17
2022-10-26T07:14:32.546Z,95.87
2022-10-26T07:16:58.492Z,95.80
2022-10-26T07:19:24.387Z,96.25
2022-10-26T07:21:50.164Z,97.39
2022-10-26T07:24:15.979Z,97.18
2022-10-26T07:26:41.732Z,96.54
2022-10-26T07:29:07.493Z,96.66
2022-10-26T07:31:33.366Z,96.42
2022-10-26T07:33:59.171Z,96.79
2022-10-26T07:36:24.960Z,95.72
2022-10-26T07:38:52.399Z,95.86
2022-10-26T07:41:18.375Z,96.76
2022-10-26T07:43:45.161Z,97.13
2022-10-26T07:46:11.977Z,97.60
2022-10-26T07:48:38.937Z,97.81
2022-10-26T07:51:04.772Z,98.12
2022-10-26T07:53:30.548Z,98.70
2022-10-26T07:55:57.128Z,98.48
2022-10-26T07:58:25.373Z,99.03
2022-10-26T08:00:52.566Z,98.92
2022-10-26T08:03:19.200Z,99.71
2022-10-26T08:05:46.920Z,100.00
2022-10-26T08:08:13.422Z,100.00
2022-10-26T08:10:44.457Z,100.00
2022-10-26T08:13:10.423Z,100.00
2022-10-26T08:15:36.835Z,100.00
2022-10-26T08:18:02.852Z,100.00
2022-10-26T08:20:28.697Z,100.00
2022-10-26T08:22:58.875Z,100.00
2022-10-26T08:25:24.990Z,100.00
2022-10-26T08:27:50.773Z,100.00
2022-10-26T08:30:16.923Z,100.00
2022-10-26T08:32:43.187Z,100.00
2022-10-26T08:35:09.347Z,100.00
2022-10-26T08:37:35.752Z,100.00
2022-10-26T08:40:03.546Z,100.00
2022-10-26T08:42:33.242Z,100.00
2022-10-26T08:45:04.828Z,100.00
2022-10-26T08:47:39.175Z,100.00
2022-10-26T08:50:22.955Z,100.00
2022-10-26T08:53:06.473Z,100.00
2022-10-26T08:56:05.412Z,100.00
2022-10-26T08:58:44.951Z,100.00
2022-10-26T09:01:10.866Z,100.00
2022-10-26T09:03:36.822Z,100.00
2022-10-26T09:06:26.612Z,100.00
2022-10-26T09:09:02.499Z,100.00
2022-10-26T09:11:50.603Z,100.00
2022-10-26T09:14:29.088Z,100.00
2022-10-26T09:17:33.339Z,100.00
2022-10-26T09:20:17.094Z,100.00
2022-10-26T09:23:01.783Z,100.00
2022-10-26T09:25:45.455Z,99.23
2022-10-26T09:28:16.716Z,98.08
2022-10-26T09:30:46.866Z,97.08
2022-10-26T09:33:23.591Z,93.72
2022-10-26T09:35:55.097Z,89.57
2022-10-26T09:38:35.962Z,84.07
2022-10-26T09:41:32.055Z,67.97
2022-10-26T09:44:27.068Z,53.34
2022-10-26T09:47:08.720Z,49.32
2022-10-26T09:49:58.048Z,49.75
2022-10-26T09:52:23.888Z,50.85
2022-10-26T09:54:49.728Z,49.66
2022-10-26T09:57:18.994Z,47.48
2022-10-26T09:59:47.258Z,43.94
2022-10-26T10:02:33.384Z,38.49
2022-10-26T10:04:59.972Z,36.73
2022-10-26T10:07:26.093Z,33.61
2022-10-26T10:10:27.114Z,30.98
2022-10-26T10:12:53.032Z,30.92
2022-10-26T10:15:23.873Z,32.00
2022-10-26T10:17:53.107Z,29.57
2022-10-26T10:20:22.680Z,28.46
2022-10-26T10:23:00.619Z,27.00
2022-10-26T10:25:35.674Z,24.84
2022-10-26T10:28:16.607Z,25.33
2022-10-26T10:30:52.181Z,27.50
2022-10-26T10:33:18.065Z,27.05
2022-10-26T10:35:51.321Z,26.44
2022-10-26T10:38:20.367Z,26.26
2022-10-26T10:40:56.174Z,25.61
2022-10-26T10:43:22.233Z,27.50
2022-10-26T10:45:52.783Z,24.97
2022-10-26T10:48:23.980Z,28.71
2022-10-26T10:50:58.924Z,28.74
2022-10-26T10:53:33.906Z,27.47
2022-10-26T10:56:21.423Z,25.22
2022-10-26T10:58:56.465Z,23.81
2022-10-26T11:01:25.139Z,24.04
2022-10-26T11:04:00.212Z,25.66
2022-10-26T11:06:30.397Z,23.87
2022-10-26T11:09:07.249Z,22.40
2022-10-26T11:11:35.674Z,22.79
2022-10-26T11:14:07.531Z,20.88
2022-10-26T11:16:39.947Z,22.90
2022-10-26T11:19:28.216Z,26.48
2022-10-26T11:21:55.407Z,26.45
2022-10-26T11:24:35.949Z,26.33
2022-10-26T11:27:11.982Z,27.20
2022-10-26T11:30:05.199Z,25.13
2022-10-26T11:32:43.371Z,26.43
2022-10-26T11:35:27.532Z,28.45
2022-10-26T11:38:27.938Z,27.07
2022-10-26T11:41:38.480Z,28.33
2022-10-26T11:44:13.073Z,29.08
2022-10-26T11:46:47.753Z,29.79
2022-10-26T11:49:13.535Z,29.78
2022-10-26T11:51:45.764Z,28.51
2022-10-26T11:54:18.641Z,27.20
2022-10-26T11:56:51.492Z,25.53
2022-10-26T11:59:20.277Z,24.49
2022-10-26T12:01:52.057Z,25.13
2022-10-26T12:04:21.532Z,25.49
2022-10-26T12:06:50.638Z,28.35
2022-10-26T12:09:23.223Z,27.82
2022-10-26T12:11:57.172Z,26.95
2022-10-26T12:14:34.102Z,26.46
2022-10-26T12:17:09.596Z,30.54
2022-10-26T12:19:45.630Z,32.32
2022-10-26T12:22:15.550Z,31.01
2022-10-26T12:24:45.895Z,32.54
2022-10-26T12:27:44.565Z,36.30
2022-10-26T12:30:24.588Z,37.06
2022-10-26T12:33:01.235Z,42.07
2022-10-26T12:35:45.089Z,46.07
2022-10-26T12:38:22.863Z,46.11
2022-10-26T12:41:07.330Z,39.10
2022-10-26T12:43:35.261Z,42.95
2022-10-26T12:46:13.317Z,44.64
2022-10-26T12:48:46.936Z,42.08
2022-10-26T12:51:21.487Z,45.41
2022-10-26T12:54:33.769Z,44.02
2022-10-26T12:57:26.588Z,43.90
2022-10-26T13:00:05.138Z,42.24
2022-10-26T13:02:37.764Z,40.13
2022-10-26T13:05:41.121Z,40.76
2022-10-26T13:08:12.007Z,42.26
2022-10-26T13:10:46.847Z,43.02
2022-10-26T13:13:23.728Z,45.50
2022-10-26T13:15:55.622Z,51.41
2022-10-26T13:18:22.230Z,57.33
2022-10-26T13:20:59.975Z,58.04
2022-10-26T13:23:28.305Z,61.48
2022-10-26T13:26:12.539Z,61.87
2022-10-26T13:28:38.337Z,63.86
2022-10-26T13:31:10.419Z,67.16
2022-10-26T13:33:40.392Z,67.10
2022-10-26T13:36:22.702Z,69.17
2022-10-26T13:38:49.459Z,72.01
2022-10-26T13:41:37.390Z,73.38
2022-10-26T13:44:06.348Z,74.21
2022-10-26T13:46:37.973Z,75.24
2022-10-26T13:49:10.807Z,75.79
2022-10-26T13:51:44.897Z,76.74
2022-10-26T13:54:27.767Z,76.89
2022-10-26T13:57:04.545Z,77.77
2022-10-26T13:59:32.680Z,79.50
2022-10-26T14:02:17.003Z,81.26
2022-10-26T14:04:48.134Z,80.65
2022-10-26T14:07:24.863Z,80.52
2022-10-26T14:09:56.449Z,81.49
2022-10-26T14:12:25.310Z,80.93
2022-10-26T14:14:53.023Z,81.24
2022-10-26T14:17:25.329Z,82.73
2022-10-26T14:19:51.927Z,82.51
2022-10-26T14:22:23.583Z,82.91
2022-10-26T14:27:30.368Z,83.29
2022-10-26T14:30:21.582Z,84.21
2022-10-26T14:32:42.785Z,84.46
2022-10-26T14:35:13.234Z,83.42
2022-10-26T14:38:05.086Z,84.18
2022-10-26T14:40:34.403Z,84.76
2022-10-26T14:43:02.840Z,85.69
2022-10-26T14:45:50.333Z,86.51
2022-10-26T14:48:20.908Z,87.79
2022-10-26T14:51:17.319Z,88.36
2022-10-26T14:53:52.035Z,87.19
2022-10-26T14:56:39.456Z,88.02
2022-10-26T14:59:30.262Z,88.70
2022-10-26T15:01:58.073Z,90.59
2022-10-26T15:04:35.919Z,90.68
2022-10-26T15:07:10.936Z,89.93
2022-10-26T15:09:38.462Z,90.51
2022-10-26T15:12:05.393Z,90.42
2022-10-26T15:14:33.141Z,91.35
2022-10-26T15:16:59.755Z,91.65
2022-10-26T15:19:26.639Z,90.83
2022-10-26T15:21:53.869Z,87.89
2022-10-26T15:24:19.611Z,89.31
2022-10-26T15:26:46.025Z,88.63
2022-10-26T15:29:33.805Z,89.89
2022-10-26T15:32:00.955Z,89.71
2022-10-26T15:34:27.227Z,87.41
2022-10-26T15:36:53.050Z,88.31
2022-10-26T15:39:18.835Z,89.54
2022-10-26T15:41:46.522Z,90.60
2022-10-26T15:44:21.259Z,91.92
2022-10-26T15:46:47.199Z,92.61
2022-10-26T15:49:20.404Z,93.37
2022-10-26T15:51:47.755Z,94.95
2022-10-26T15:54:14.084Z,95.76
2022-10-26T15:56:42.937Z,97.74
2022-10-26T15:59:15.437Z,97.46
2022-10-26T16:01:41.634Z,98.70
2022-10-26T16:04:10.447Z,99.42
2022-10-26T16:06:38.580Z,98.74
2022-10-26T16:09:06.772Z,98.08
2022-10-26T16:11:33.191Z,98.84
2022-10-26T16:14:02.669Z,98.38
2022-10-26T16:16:29.879Z,96.25
2022-10-26T16:19:11.882Z,93.69
2022-10-26T16:21:42.427Z,92.22
2022-10-26T16:24:09.264Z,92.81
2022-10-26T16:26:35.299Z,92.22
2022-10-26T16:29:01.149Z,91.63
2022-10-26T16:31:27.059Z,91.98
2022-10-26T16:33:53.640Z,92.19
2022-10-26T16:36:19.449Z,92.22
2022-10-26T16:38:45.233Z,91.50
2022-10-26T16:41:14.050Z,90.87
2022-10-26T16:43:41.974Z,90.70
2022-10-26T16:46:13.397Z,90.83
2022-10-26T16:48:40.995Z,90.26
2022-10-26T16:51:17.089Z,90.06
2022-10-26T16:53:43.758Z,89.71
2022-10-26T16:56:12.847Z,89.23
2022-10-26T16:58:39.527Z,88.32
2022-10-26T17:01:06.876Z,89.61
2022-10-26T17:03:33.382Z,88.72
2022-10-26T17:06:02.000Z,89.37
2022-10-26T17:08:28.786Z,89.43
2022-10-26T17:11:00.916Z,90.08
2022-10-26T17:13:26.732Z,89.47
2022-10-26T17:15:52.587Z,89.46
2022-10-26T17:18:18.389Z,90.05
2022-10-26T17:20:50.785Z,88.82
2022-10-26T17:23:17.466Z,89.38
2022-10-26T17:25:44.098Z,89.78
2022-10-26T17:28:09.963Z,90.17
2022-10-26T17:30:35.903Z,88.78
2022-10-26T17:33:02.318Z,89.92
2022-10-26T17:35:28.223Z,89.33
2022-10-26T17:37:54.329Z,89.59
2022-10-26T17:40:20.281Z,89.93
2022-10-26T17:42:46.203Z,91.39
2022-10-26T17:45:12.472Z,91.33
2022-10-26T17:47:38.681Z,89.94
2022-10-26T17:50:05.066Z,89.59
2022-10-26T17:52:31.472Z,90.50
2022-10-26T17:54:59.272Z,90.21
2022-10-26T17:57:27.803Z,91.46
2022-10-26T17:59:53.858Z,91.54
2022-10-26T18:02:19.774Z,92.12
2022-10-26T18:04:45.714Z,90.50
2022-10-26T18:07:12.148Z,90.48
2022-10-26T18:09:38.000Z,90.54
2022-10-26T18:12:04.268Z,89.90
2022-10-26T18:14:30.189Z,90.62
2022-10-26T18:16:56.057Z,89.94
2022-10-26T18:19:22.144Z,90.30
2022-10-26T18:21:47.987Z,90.35
2022-10-26T18:24:13.848Z,90.25
2022-10-26T18:26:40.038Z,89.58
2022-10-26T18:29:06.369Z,89.25
2022-10-26T18:31:34.274Z,89.05
2022-10-26T18:34:02.130Z,89.06
2022-10-26T18:36:29.373Z,90.58
2022-10-26T18:38:55.834Z,91.50
2022-10-26T18:41:23.325Z,92.01
2022-10-26T18:43:51.730Z,92.37
2022-10-26T18:46:22.909Z,92.52
2022-10-26T18:48:52.896Z,93.27
2022-10-26T18:51:30.520Z,94.15
2022-10-26T18:53:57.650Z,94.53
2022-10-26T18:56:24.370Z,94.48
2022-10-26T18:58:52.934Z,94.88
2022-10-26T19:01:36.070Z,94.71
2022-10-26T19:04:08.506Z,94.36
2022-10-26T19:06:37.394Z,94.19
2022-10-26T19:09:04.700Z,94.50
2022-10-26T19:11:31.030Z,94.13
2022-10-26T19:13:57.732Z,93.85
2022-10-26T19:16:44.677Z,92.90
2022-10-26T19:19:12.784Z,94.06
2022-10-26T19:21:38.716Z,94.17
2022-10-26T19:24:10.052Z,94.83
2022-10-26T19:26:39.862Z,95.53
2022-10-26T19:29:13.394Z,95.47
2022-10-26T19:31:39.312Z,95.79
2022-10-26T19:34:05.377Z,95.35
2022-10-26T19:36:32.180Z,95.18
2022-10-26T19:38:58.221Z,96.19
2022-10-26T19:41:26.075Z,96.51
2022-10-26T19:43:56.291Z,96.94
2022-10-26T19:46:25.151Z,96.58
2022-10-26T19:48:52.987Z,96.86
2022-10-26T19:51:19.342Z,97.13
2022-10-26T19:53:45.521Z,97.49
2022-10-26T19:56:12.920Z,97.70
2022-10-26T19:58:40.561Z,98.14
2022-10-26T20:01:07.082Z,98.61
2022-10-26T20:03:33.034Z,98.92
2022-10-26T20:06:01.241Z,98.93
2022-10-26T20:08:28.099Z,98.41
2022-10-26T20:10:56.134Z,98.84
2022-10-26T20:13:22.748Z,99.11
2022-10-26T20:15:49.734Z,99.21
2022-10-26T20:18:16.092Z,100.00
2022-10-26T20:20:42.077Z,100.00
2022-10-26T20:23:09.383Z,100.00
2022-10-26T20:25:44.086Z,100.00
2022-10-26T20:28:10.470Z,100.00
2022-10-26T20:30:37.642Z,100.00
2022-10-26T20:33:04.163Z,100.00
2022-10-26T20:35:31.725Z,100.00
2022-10-26T20:37:58.371Z,100.00
2022-10-26T20:40:24.935Z,100.00
2022-10-26T20:42:51.728Z,100.00
2022-10-26T20:45:26.961Z,100.00
2022-10-26T20:47:55.977Z,100.00
2022-10-26T20:50:23.603Z,100.00
2022-10-26T20:53:02.292Z,100.00
2022-10-26T20:56:05.644Z,100.00
2022-10-26T20:58:36.498Z,100.00
2022-10-26T21:01:05.560Z,100.00
2022-10-26T21:03:31.438Z,100.00
2022-10-26T21:05:57.331Z,100.00
2022-10-26T21:08:23.150Z,100.00
2022-10-26T21:10:50.177Z,100.00
2022-10-26T21:13:16.302Z,100.00
2022-10-26T21:15:42.457Z,100.00
2022-10-26T21:18:08.465Z,100.00
2022-10-26T21:20:34.271Z,100.00
2022-10-26T21:23:00.097Z,100.00
2022-10-26T21:25:26.004Z,100.00
2022-10-26T21:27:58.121Z,100.00
2022-10-26T21:30:25.081Z,100.00
2022-10-26T21:32:52.225Z,100.00
2022-10-26T21:35:18.916Z,100.00
2022-10-26T21:37:45.022Z,100.00
2022-10-26T21:40:11.247Z,100.00
2022-10-26T21:42:37.141Z,100.00
2022-10-26T21:45:03.196Z,100.00
2022-10-26T21:47:28.968Z,100.00
2022-10-26T21:49:54.699Z,100.00
2022-10-26T21:52:20.410Z,100.00
2022-10-26T21:54:46.145Z,100.00
2022-10-26T21:57:12.106Z,100.00
2022-10-26T21:59:37.997Z,100.00
2022-10-26T22:02:03.960Z,100.00
2022-10-26T22:04:29.966Z,100.00
2022-10-26T22:06:55.800Z,100.00
2022-10-26T22:09:21.564Z,100.00
2022-10-26T22:11:47.424Z,100.00
2022-10-26T22:14:14.856Z,100.00
2022-10-26T22:16:40.668Z,100.00
2022-10-26T22:19:07.559Z,100.00
2022-10-26T22:21:36.401Z,100.00
2022-10-26T22:24:02.705Z,100.00
2022-10-26T22:26:28.618Z,100.00
2022-10-26T22:28:56.182Z,100.00
2022-10-26T22:31:34.156Z,100.00
2022-10-26T22:34:06.387Z,100.00
2022-10-26T22:36:33.992Z,100.00
2022-10-26T22:39:00.026Z,100.00
2022-10-26T22:41:25.837Z,100.00
2022-10-26T22:43:51.743Z,100.00
2022-10-26T22:46:20.372Z,100.00
2022-10-26T22:48:49.472Z,100.00
2022-10-26T22:51:18.988Z,100.00
2022-10-26T22:53:45.282Z,100.00
2022-10-26T22:56:13.532Z,100.00
2022-10-26T22:58:39.815Z,100.00
2022-10-26T23:01:13.782Z,100.00
2022-10-26T23:03:39.758Z,100.00
2022-10-26T23:06:07.538Z,100.00
2022-10-26T23:08:33.607Z,100.00
2022-10-26T23:11:01.221Z,100.00
2022-10-26T23:13:28.097Z,100.00
2022-10-26T23:15:54.344Z,100.00
2022-10-26T23:18:20.374Z,100.00
2022-10-26T23:20:50.491Z,100.00
2022-10-26T23:23:16.906Z,100.00
2022-10-26T23:25:43.108Z,100.00
2022-10-26T23:28:08.970Z,100.00
2022-10-26T23:30:36.134Z,100.00
2022-10-26T23:33:02.002Z,100.00
2022-10-26T23:35:27.754Z,100.00
2022-10-26T23:37:57.591Z,100.00
2022-10-26T23:40:24.034Z,100.00
2022-10-26T23:42:50.183Z,100.00
2022-10-26T23:45:16.329Z,100.00
2022-10-26T23:47:42.193Z,100.00
2022-10-26T23:50:08.103Z,100.00
2022-10-26T23:52:34.068Z,100.00
2022-10-26T23:54:59.868Z,100.00
2022-10-26T23:57:25.771Z,100.00
2022-10-26T23:59:52.289Z,100.00
